createdAt,value
2022-10-11T00:01:07.090Z,3.60
2022-10-11T00:03:37.875Z,3.62
2022-10-11T00:06:07.488Z,3.62
2022-10-11T00:08:37.441Z,3.65
2022-10-11T00:11:07.563Z,3.66
2022-10-11T00:13:36.276Z,3.63
2022-10-11T00:16:13.050Z,3.58
2022-10-11T00:18:42.356Z,3.55
2022-10-11T00:21:14.109Z,3.56
2022-10-11T00:23:43.638Z,3.56
2022-10-11T00:26:12.494Z,3.56
2022-10-11T00:28:41.945Z,3.53
2022-10-11T00:31:13.902Z,3.52
2022-10-11T00:33:42.893Z,3.50
2022-10-11T00:36:14.724Z,3.46
2022-10-11T00:38:44.894Z,3.43
2022-10-11T00:41:14.602Z,3.42
2022-10-11T00:43:43.976Z,3.39
2022-10-11T00:46:18.754Z,3.37
2022-10-11T00:49:06.339Z,3.33
2022-10-11T00:51:46.697Z,3.27
2022-10-11T00:54:19.829Z,3.21
2022-10-11T00:56:53.362Z,3.15
2022-10-11T00:59:32.374Z,3.11
2022-10-11T01:02:01.201Z,3.08
2022-10-11T01:04:29.961Z,3.11
2022-10-11T01:06:59.339Z,3.12
2022-10-11T01:09:31.074Z,3.13
2022-10-11T01:12:03.394Z,3.11
2022-10-11T01:15:14.036Z,3.07
2022-10-11T01:17:58.595Z,3.03
2022-10-11T01:20:48.436Z,2.98
2022-10-11T01:24:12.152Z,2.95
2022-10-11T01:27:34.791Z,2.90
2022-10-11T01:33:23.872Z,2.86
2022-10-11T01:36:11.231Z,2.80
2022-10-11T01:38:55.050Z,2.75
2022-10-11T01:41:31.568Z,2.72
2022-10-11T01:44:01.672Z,2.70
2022-10-11T01:46:31.353Z,2.67
2022-10-11T01:49:02.083Z,2.63
2022-10-11T01:51:35.596Z,2.61
2022-10-11T01:55:07.632Z,2.60
2022-10-11T01:57:49.225Z,2.57
2022-10-11T02:00:25.995Z,2.52
2022-10-11T02:03:00.546Z,2.51
2022-10-11T02:05:42.463Z,2.50
2022-10-11T02:08:50.697Z,2.50
2022-10-11T02:11:27.176Z,2.53
2022-10-11T02:14:25.301Z,2.54
2022-10-11T02:17:09.476Z,2.53
2022-10-11T02:19:43.383Z,2.51
2022-10-11T02:22:26.281Z,2.47
2022-10-11T02:24:58.335Z,2.47
2022-10-11T02:27:31.403Z,2.48
2022-10-11T02:30:02.780Z,2.50
2022-10-11T02:32:32.673Z,2.52
2022-10-11T02:35:02.731Z,2.53
2022-10-11T02:37:54.120Z,2.55
2022-10-11T02:40:28.689Z,2.57
2022-10-11T02:43:17.901Z,2.59
2022-10-11T02:45:54.615Z,2.61
2022-10-11T02:48:24.391Z,2.63
2022-10-11T02:50:53.841Z,2.65
2022-10-11T02:53:25.917Z,2.67
2022-10-11T02:55:55.822Z,2.67
2022-10-11T02:58:25.671Z,2.71
2022-10-11T03:00:54.519Z,2.76
2022-10-11T03:03:23.288Z,2.79
2022-10-11T03:05:51.876Z,2.79
2022-10-11T03:08:20.495Z,2.80
2022-10-11T03:10:49.322Z,2.81
2022-10-11T03:13:18.597Z,2.80
2022-10-11T03:16:02.939Z,2.81
2022-10-11T03:18:32.607Z,2.82
2022-10-11T03:21:01.336Z,2.83
2022-10-11T03:23:30.089Z,2.82
2022-10-11T03:25:58.805Z,2.81
2022-10-11T03:28:27.641Z,2.78
2022-10-11T03:30:56.430Z,2.75
2022-10-11T03:33:25.417Z,2.73
2022-10-11T03:35:54.028Z,2.72
2022-10-11T03:38:23.071Z,2.73
2022-10-11T03:40:52.007Z,2.73
2022-10-11T03:43:20.684Z,2.72
2022-10-11T03:45:49.434Z,2.73
2022-10-11T03:48:18.242Z,2.74
2022-10-11T03:50:46.959Z,2.76
2022-10-11T03:53:15.716Z,2.76
2022-10-11T03:55:44.516Z,2.78
2022-10-11T03:58:13.310Z,2.82
2022-10-11T04:00:42.047Z,2.84
2022-10-11T04:03:10.738Z,2.86
2022-10-11T04:05:39.558Z,2.89
2022-10-11T04:08:11.958Z,2.92
2022-10-11T04:10:41.491Z,2.95
2022-10-11T04:13:11.894Z,2.96
2022-10-11T04:15:41.635Z,2.94
2022-10-11T04:18:10.524Z,2.98
2022-10-11T04:20:39.234Z,3.00
2022-10-11T04:23:07.888Z,3.01
2022-10-11T04:25:39.706Z,3.02
2022-10-11T04:28:09.462Z,3.05
2022-10-11T04:30:38.140Z,3.09
2022-10-11T04:33:06.905Z,3.10
2022-10-11T04:35:35.509Z,3.10
2022-10-11T04:38:04.232Z,3.08
2022-10-11T04:40:33.468Z,3.07
2022-10-11T04:43:02.291Z,3.07
2022-10-11T04:45:31.276Z,3.08
2022-10-11T04:48:00.329Z,3.11
2022-10-11T04:50:29.230Z,3.15
2022-10-11T04:52:59.336Z,3.17
2022-10-11T04:55:29.319Z,3.20
2022-10-11T04:57:58.227Z,3.21
2022-10-11T05:00:27.782Z,3.22
2022-10-11T05:02:57.232Z,3.23
2022-10-11T05:05:26.163Z,3.27
2022-10-11T05:07:54.874Z,3.28
2022-10-11T05:10:23.489Z,3.31
2022-10-11T05:12:52.221Z,3.35
2022-10-11T05:15:20.989Z,3.36
2022-10-11T05:17:49.877Z,3.36
2022-10-11T05:20:18.580Z,3.36
2022-10-11T05:22:47.476Z,3.37
2022-10-11T05:25:16.383Z,3.40
2022-10-11T05:27:45.618Z,3.44
2022-10-11T05:30:14.245Z,3.48
2022-10-11T05:32:43.198Z,3.51
2022-10-11T05:35:11.924Z,3.52
2022-10-11T05:37:40.634Z,3.52
2022-10-11T05:40:11.447Z,3.50
2022-10-11T05:42:40.124Z,3.48
2022-10-11T05:45:09.619Z,3.50
2022-10-11T05:47:38.479Z,3.51
2022-10-11T05:50:07.623Z,3.53
2022-10-11T05:52:36.589Z,3.56
2022-10-11T05:55:06.598Z,3.61
2022-10-11T05:57:35.342Z,3.66
2022-10-11T06:00:06.165Z,3.75
2022-10-11T06:02:41.600Z,3.85
2022-10-11T06:05:10.312Z,3.95
2022-10-11T06:07:39.098Z,4.08
2022-10-11T06:10:08.670Z,4.18
2022-10-11T06:12:37.521Z,4.27
2022-10-11T06:15:07.672Z,4.38
2022-10-11T06:17:36.448Z,4.48
2022-10-11T06:20:05.560Z,4.60
2022-10-11T06:22:34.311Z,4.72
2022-10-11T06:25:03.194Z,4.86
2022-10-11T06:27:31.997Z,5.03
2022-10-11T06:30:01.157Z,5.19
2022-10-11T06:32:29.890Z,5.37
2022-10-11T06:34:58.605Z,5.53
2022-10-11T06:37:27.472Z,5.68
2022-10-11T06:39:56.250Z,5.84
2022-10-11T06:42:24.866Z,5.98
2022-10-11T06:44:53.456Z,6.09
2022-10-11T06:47:22.290Z,6.20
2022-10-11T06:49:51.116Z,6.30
2022-10-11T06:52:19.982Z,6.40
2022-10-11T06:54:48.635Z,6.52
2022-10-11T06:57:17.349Z,6.64
2022-10-11T06:59:46.010Z,6.76
2022-10-11T07:02:14.833Z,6.87
2022-10-11T07:04:43.476Z,6.99
2022-10-11T07:07:14.565Z,7.10
2022-10-11T07:09:44.486Z,7.20
2022-10-11T07:12:13.354Z,7.30
2022-10-11T07:14:41.960Z,7.40
2022-10-11T07:17:10.720Z,7.48
2022-10-11T07:19:39.254Z,7.57
2022-10-11T07:22:07.997Z,7.68
2022-10-11T07:24:36.780Z,7.79
2022-10-11T07:30:16.953Z,8.08
2022-10-11T07:32:45.839Z,8.17
2022-10-11T07:35:14.537Z,8.27
2022-10-11T07:37:43.475Z,8.38
2022-10-11T07:40:12.303Z,8.49
2022-10-11T07:42:41.191Z,8.58
2022-10-11T07:45:10.049Z,8.67
2022-10-11T07:47:39.076Z,8.74
2022-10-11T07:50:09.023Z,8.82
2022-10-11T07:52:38.922Z,8.92
2022-10-11T07:55:08.446Z,9.01
2022-10-11T07:57:37.208Z,9.08
2022-10-11T08:00:07.280Z,9.17
2022-10-11T08:02:40.658Z,9.26
2022-10-11T08:05:09.549Z,9.36
2022-10-11T08:07:38.248Z,9.49
2022-10-11T08:10:07.933Z,9.61
2022-10-11T08:12:36.491Z,9.72
2022-10-11T08:15:05.838Z,9.81
2022-10-11T08:17:34.599Z,9.91
2022-10-11T08:20:03.929Z,10.01
2022-10-11T08:22:32.821Z,10.13
2022-10-11T08:25:01.468Z,10.28
2022-10-11T08:27:30.246Z,10.39
2022-10-11T08:29:59.354Z,10.47
2022-10-11T08:32:28.095Z,10.56
2022-10-11T08:34:57.056Z,10.68
2022-10-11T08:37:25.958Z,10.79
2022-10-11T08:39:54.760Z,10.92
2022-10-11T08:42:36.788Z,11.03
2022-10-11T08:45:12.223Z,11.14
2022-10-11T08:47:46.462Z,11.24
2022-10-11T08:50:23.976Z,11.34
2022-10-11T08:53:54.399Z,11.43
2022-10-11T08:56:24.615Z,11.58
2022-10-11T08:59:03.775Z,11.69
2022-10-11T09:01:32.793Z,11.78
2022-10-11T09:04:01.546Z,11.91
2022-10-11T09:06:51.264Z,12.08
2022-10-11T09:10:12.594Z,12.22
2022-10-11T09:12:41.203Z,12.42
2022-10-11T09:15:25.204Z,12.56
2022-10-11T09:18:27.613Z,12.68
2022-10-11T09:21:17.466Z,12.77
2022-10-11T09:24:40.458Z,12.91
2022-10-11T09:27:18.385Z,12.96
2022-10-11T09:29:50.902Z,13.01
2022-10-11T09:32:21.932Z,13.07
2022-10-11T09:35:19.194Z,13.14
2022-10-11T09:38:22.391Z,13.21
2022-10-11T09:41:29.972Z,13.32
2022-10-11T09:43:59.023Z,13.41
2022-10-11T09:46:43.918Z,13.48
2022-10-11T09:49:16.969Z,13.55
2022-10-11T09:52:11.607Z,13.65
2022-10-11T09:54:42.560Z,13.72
2022-10-11T09:57:55.384Z,13.78
2022-10-11T10:00:33.868Z,13.85
2022-10-11T10:03:05.860Z,13.92
2022-10-11T10:05:38.648Z,14.00
2022-10-11T10:08:10.382Z,14.08
2022-10-11T10:11:08.680Z,14.18
2022-10-11T10:13:51.824Z,14.27
2022-10-11T10:16:35.125Z,14.31
2022-10-11T10:19:16.936Z,14.36
2022-10-11T10:21:52.751Z,14.44
2022-10-11T10:24:25.126Z,14.56
2022-10-11T10:27:09.192Z,14.64
2022-10-11T10:29:38.393Z,14.71
2022-10-11T10:32:21.283Z,14.75
2022-10-11T10:35:13.916Z,14.83
2022-10-11T10:37:59.126Z,15.05
2022-10-11T10:40:58.514Z,15.23
2022-10-11T10:43:36.682Z,15.32
2022-10-11T10:46:40.552Z,15.37
2022-10-11T10:49:53.983Z,15.40
2022-10-11T10:52:48.068Z,15.43
2022-10-11T10:55:33.544Z,15.42
2022-10-11T10:58:15.067Z,15.46
2022-10-11T11:00:53.711Z,15.54
2022-10-11T11:03:42.817Z,15.63
2022-10-11T11:06:30.582Z,15.83
2022-10-11T11:09:25.962Z,16.04
2022-10-11T11:12:23.307Z,16.19
2022-10-11T11:15:31.409Z,16.35
2022-10-11T11:18:26.203Z,16.59
2022-10-11T11:21:55.645Z,16.70
2022-10-11T11:24:54.828Z,16.71
2022-10-11T11:27:57.606Z,16.72
2022-10-11T11:30:37.803Z,16.76
2022-10-11T11:33:20.933Z,16.81
2022-10-11T11:35:54.317Z,16.87
2022-10-11T11:38:37.754Z,16.96
2022-10-11T11:41:13.467Z,17.07
2022-10-11T11:44:27.998Z,17.17
2022-10-11T11:47:12.277Z,17.22
2022-10-11T11:49:45.876Z,17.27
2022-10-11T11:52:27.512Z,17.39
2022-10-11T11:55:09.818Z,17.49
2022-10-11T11:58:08.084Z,17.59
2022-10-11T12:01:04.327Z,17.69
2022-10-11T12:03:46.229Z,17.78
2022-10-11T12:06:14.966Z,17.81
2022-10-11T12:09:19.209Z,17.83
2022-10-11T12:12:07.072Z,17.85
2022-10-11T12:14:42.220Z,17.88
2022-10-11T12:17:17.805Z,17.90
2022-10-11T12:19:59.693Z,17.91
2022-10-11T12:22:28.427Z,17.96
2022-10-11T12:25:09.411Z,18.03
2022-10-11T12:27:52.588Z,18.06
2022-10-11T12:30:51.038Z,18.04
2022-10-11T12:33:46.832Z,18.08
2022-10-11T12:36:37.346Z,18.17
2022-10-11T12:39:24.315Z,18.23
2022-10-11T12:42:07.437Z,18.19
2022-10-11T12:44:36.450Z,18.10
2022-10-11T12:47:40.103Z,17.99
2022-10-11T12:50:48.143Z,17.89
2022-10-11T12:53:41.344Z,17.75
2022-10-11T12:56:49.670Z,17.60
2022-10-11T12:59:24.019Z,17.48
2022-10-11T13:01:59.507Z,17.40
2022-10-11T13:04:33.376Z,17.34
2022-10-11T13:07:07.763Z,17.32
2022-10-11T13:09:44.157Z,17.30
2022-10-11T13:12:23.585Z,17.29
2022-10-11T13:15:07.246Z,17.26
2022-10-11T13:17:41.324Z,17.31
2022-10-11T13:20:24.958Z,17.41
2022-10-11T13:22:56.525Z,17.51
2022-10-11T13:25:37.654Z,17.59
2022-10-11T13:28:09.206Z,17.66
2022-10-11T13:30:43.168Z,17.71
2022-10-11T13:33:28.006Z,17.74
2022-10-11T13:35:56.710Z,17.80
2022-10-11T13:38:32.426Z,17.84
2022-10-11T13:41:08.611Z,17.86
2022-10-11T13:43:38.529Z,17.87
2022-10-11T13:46:12.911Z,17.87
2022-10-11T13:48:42.122Z,17.88
2022-10-11T13:51:34.293Z,17.88
2022-10-11T13:54:13.781Z,17.85
2022-10-11T13:56:46.825Z,17.84
2022-10-11T13:59:23.393Z,17.81
2022-10-11T14:01:59.039Z,17.77
2022-10-11T14:04:29.881Z,17.73
2022-10-11T14:07:02.935Z,17.70
2022-10-11T14:09:38.562Z,17.70
2022-10-11T14:12:41.079Z,17.66
2022-10-11T14:15:31.041Z,17.59
2022-10-11T14:18:01.424Z,17.50
2022-10-11T14:20:39.659Z,17.45
2022-10-11T14:23:08.390Z,17.43
2022-10-11T14:25:37.208Z,17.39
2022-10-11T14:28:11.696Z,17.37
2022-10-11T14:30:42.326Z,17.30
2022-10-11T14:33:12.007Z,17.25
2022-10-11T14:35:41.783Z,17.19
2022-10-11T14:38:12.558Z,17.10
2022-10-11T14:40:41.308Z,16.99
2022-10-11T14:43:10.135Z,16.91
2022-10-11T14:45:39.032Z,16.81
2022-10-11T14:48:07.671Z,16.71
2022-10-11T14:51:01.958Z,16.60
2022-10-11T14:53:30.996Z,16.49
2022-10-11T14:56:00.053Z,16.40
2022-10-11T14:58:28.932Z,16.30
2022-10-11T15:00:57.684Z,16.19
2022-10-11T15:03:26.515Z,16.10
2022-10-11T15:05:55.398Z,16.01
2022-10-11T15:08:24.257Z,15.92
2022-10-11T15:10:53.054Z,15.84
2022-10-11T15:13:22.854Z,15.75
2022-10-11T15:15:51.595Z,15.65
2022-10-11T15:18:21.347Z,15.56
2022-10-11T15:20:51.600Z,15.47
2022-10-11T15:23:20.200Z,15.37
2022-10-11T15:25:48.888Z,15.27
2022-10-11T15:28:31.796Z,15.17
2022-10-11T15:31:01.005Z,15.04
2022-10-11T15:33:29.692Z,14.93
2022-10-11T15:35:58.363Z,14.82
2022-10-11T15:38:28.151Z,14.72
2022-10-11T15:40:57.192Z,14.62
2022-10-11T15:43:28.036Z,14.51
2022-10-11T15:45:58.541Z,14.40
2022-10-11T15:48:27.936Z,14.28
2022-10-11T15:50:56.937Z,14.18
2022-10-11T15:53:31.505Z,14.06
2022-10-11T15:56:09.468Z,13.96
2022-10-11T15:58:41.213Z,13.85
2022-10-11T16:01:21.243Z,13.76
2022-10-11T16:03:51.130Z,13.66
2022-10-11T16:06:19.921Z,13.52
2022-10-11T16:08:48.561Z,13.39
2022-10-11T16:11:17.515Z,13.29
2022-10-11T16:13:46.088Z,13.19
2022-10-11T16:16:14.970Z,13.11
2022-10-11T16:18:43.690Z,13.02
2022-10-11T16:21:15.830Z,12.92
2022-10-11T16:23:44.574Z,12.83
2022-10-11T16:26:16.763Z,12.73
2022-10-11T16:28:45.645Z,12.62
2022-10-11T16:31:18.381Z,12.51
2022-10-11T16:33:48.161Z,12.40
2022-10-11T16:36:40.909Z,12.33
2022-10-11T16:39:17.151Z,12.26
2022-10-11T16:41:46.814Z,12.21
2022-10-11T16:44:19.269Z,12.16
2022-10-11T16:46:49.419Z,12.12
2022-10-11T16:49:22.706Z,12.07
2022-10-11T16:51:53.048Z,12.01
2022-10-11T16:54:22.552Z,11.97
2022-10-11T16:56:51.421Z,11.95
2022-10-11T16:59:20.681Z,11.92
2022-10-11T17:01:49.398Z,11.88
2022-10-11T17:04:18.093Z,11.84
2022-10-11T17:06:47.026Z,11.79
2022-10-11T17:09:16.272Z,11.74
2022-10-11T17:11:45.191Z,11.68
2022-10-11T17:14:14.441Z,11.63
2022-10-11T17:16:43.980Z,11.60
2022-10-11T17:19:15.218Z,11.58
2022-10-11T17:21:43.923Z,11.57
2022-10-11T17:24:12.629Z,11.58
2022-10-11T17:26:41.374Z,11.60
2022-10-11T17:29:15.486Z,11.63
2022-10-11T17:31:49.034Z,11.65
2022-10-11T17:34:18.478Z,11.68
2022-10-11T17:36:48.148Z,11.69
2022-10-11T17:39:21.549Z,11.72
2022-10-11T17:41:50.899Z,11.74
2022-10-11T17:44:21.905Z,11.75
2022-10-11T17:46:50.804Z,11.76
2022-10-11T17:49:19.563Z,11.77
2022-10-11T17:51:48.150Z,11.78
2022-10-11T17:54:17.092Z,11.78
2022-10-11T17:56:45.834Z,11.75
2022-10-11T17:59:23.240Z,11.72
2022-10-11T18:01:52.057Z,11.71
2022-10-11T18:04:22.011Z,11.70
2022-10-11T18:06:50.677Z,11.70
2022-10-11T18:09:20.299Z,11.70
2022-10-11T18:11:49.725Z,11.70
2022-10-11T18:14:18.605Z,11.68
2022-10-11T18:16:47.263Z,11.66
2022-10-11T18:19:15.966Z,11.60
2022-10-11T18:21:45.192Z,11.54
2022-10-11T18:24:16.767Z,11.51
2022-10-11T18:26:46.119Z,11.48
2022-10-11T18:29:15.297Z,11.44
2022-10-11T18:31:44.102Z,11.37
2022-10-11T18:34:14.023Z,11.32
2022-10-11T18:36:42.714Z,11.30
2022-10-11T18:39:14.729Z,11.30
2022-10-11T18:41:44.757Z,11.27
2022-10-11T18:44:15.543Z,11.25
2022-10-11T18:46:44.932Z,11.24
2022-10-11T18:52:48.581Z,11.21
2022-10-11T18:55:17.208Z,11.17
2022-10-11T18:57:46.058Z,11.15
2022-10-11T19:00:37.693Z,11.13
2022-10-11T19:03:04.439Z,11.11
2022-10-11T19:05:33.217Z,11.07
2022-10-11T19:08:02.117Z,11.04
2022-10-11T19:10:30.825Z,11.01
2022-10-11T19:12:59.672Z,10.97
2022-10-11T19:15:29.006Z,10.93
2022-10-11T19:17:57.849Z,10.92
2022-10-11T19:20:27.555Z,10.90
2022-10-11T19:22:59.179Z,10.87
2022-10-11T19:25:27.663Z,10.86
2022-10-11T19:27:56.260Z,10.87
2022-10-11T19:30:25.436Z,10.88
2022-10-11T19:32:53.944Z,10.88
2022-10-11T19:35:22.731Z,10.91
2022-10-11T19:37:51.394Z,10.93
2022-10-11T19:40:20.171Z,10.94
2022-10-11T19:42:48.716Z,10.95
2022-10-11T19:45:17.391Z,10.96
2022-10-11T19:47:46.111Z,10.94
2022-10-11T19:50:14.726Z,10.92
2022-10-11T19:52:45.042Z,10.91
2022-10-11T19:55:13.741Z,10.91
2022-10-11T19:57:42.394Z,10.91
2022-10-11T20:00:11.864Z,10.93
2022-10-11T20:02:40.736Z,10.93
2022-10-11T20:05:09.670Z,10.92
2022-10-11T20:07:38.360Z,10.93
2022-10-11T20:10:07.137Z,10.93
2022-10-11T20:12:36.031Z,10.92
2022-10-11T20:15:05.195Z,10.91
2022-10-11T20:17:48.813Z,10.91
2022-10-11T20:20:19.022Z,10.92
2022-10-11T20:22:47.654Z,10.93
2022-10-11T20:25:16.366Z,10.95
2022-10-11T20:27:46.497Z,10.97
2022-10-11T20:30:15.147Z,10.99
2022-10-11T20:32:43.613Z,11.01
2022-10-11T20:35:12.381Z,11.00
2022-10-11T20:37:41.101Z,10.97
2022-10-11T20:40:11.249Z,10.95
2022-10-11T20:42:39.817Z,10.95
2022-10-11T20:45:09.098Z,10.96
2022-10-11T20:47:37.628Z,10.97
2022-10-11T20:50:06.675Z,10.99
2022-10-11T20:52:35.523Z,10.96
2022-10-11T20:55:04.788Z,10.93
2022-10-11T20:57:33.536Z,10.90
2022-10-11T21:00:02.224Z,10.89
2022-10-11T21:02:31.026Z,10.88
2022-10-11T21:04:59.704Z,10.86
2022-10-11T21:07:28.329Z,10.84
2022-10-11T21:09:57.574Z,10.85
2022-10-11T21:12:26.215Z,10.87
2022-10-11T21:14:54.701Z,10.90
2022-10-11T21:17:23.343Z,10.89
2022-10-11T21:19:52.040Z,10.87
2022-10-11T21:22:20.680Z,10.86
2022-10-11T21:24:49.517Z,10.84
2022-10-11T21:27:18.175Z,10.81
2022-10-11T21:29:47.010Z,10.76
2022-10-11T21:32:15.706Z,10.74
2022-10-11T21:34:45.069Z,10.73
2022-10-11T21:37:13.993Z,10.71
2022-10-11T21:39:43.270Z,10.70
2022-10-11T21:42:12.076Z,10.68
2022-10-11T21:44:43.572Z,10.65
2022-10-11T21:47:12.709Z,10.58
2022-10-11T21:49:41.364Z,10.51
2022-10-11T21:52:10.528Z,10.50
2022-10-11T21:54:39.361Z,10.50
2022-10-11T21:57:08.091Z,10.49
2022-10-11T21:59:36.788Z,10.46
2022-10-11T22:02:05.538Z,10.43
2022-10-11T22:04:34.887Z,10.37
2022-10-11T22:07:03.913Z,10.31
2022-10-11T22:09:35.238Z,10.24
2022-10-11T22:12:04.120Z,10.18
2022-10-11T22:14:32.661Z,10.13
2022-10-11T22:17:01.369Z,10.10
2022-10-11T22:19:30.207Z,10.04
2022-10-11T22:21:58.646Z,10.00
2022-10-11T22:24:29.215Z,9.94
2022-10-11T22:26:57.842Z,9.88
2022-10-11T22:29:31.752Z,9.82
2022-10-11T22:32:03.215Z,9.79
2022-10-11T22:34:33.546Z,9.75
2022-10-11T22:37:02.150Z,9.73
2022-10-11T22:39:31.020Z,9.72
2022-10-11T22:41:59.669Z,9.72
2022-10-11T22:44:28.323Z,9.71
2022-10-11T22:46:57.196Z,9.72
2022-10-11T22:49:25.766Z,9.71
2022-10-11T22:51:54.499Z,9.72
2022-10-11T22:54:23.043Z,9.74
2022-10-11T22:56:51.691Z,9.76
2022-10-11T22:59:20.465Z,9.77
2022-10-11T23:01:49.164Z,9.78
2022-10-11T23:04:17.917Z,9.76
2022-10-11T23:06:46.714Z,9.74
2022-10-11T23:09:15.456Z,9.72
2022-10-11T23:11:44.108Z,9.68
2022-10-11T23:14:12.896Z,9.67
2022-10-11T23:16:41.359Z,9.67
2022-10-11T23:19:10.022Z,9.63
2022-10-11T23:24:54.925Z,9.55
2022-10-11T23:27:23.647Z,9.47
2022-10-11T23:29:52.160Z,9.40
2022-10-11T23:32:20.892Z,9.36
2022-10-11T23:34:49.491Z,9.34
2022-10-11T23:37:18.248Z,9.35
2022-10-11T23:39:47.020Z,9.35
2022-10-11T23:42:15.604Z,9.32
2022-10-11T23:44:44.208Z,9.29
2022-10-11T23:47:12.850Z,9.25
2022-10-11T23:49:41.701Z,9.21
2022-10-11T23:52:10.406Z,9.17
2022-10-11T23:54:39.070Z,9.13
2022-10-11T23:57:07.783Z,9.07
2022-10-11T23:59:36.456Z,8.99
